sensor_id;sensor_type;location;lat;lon;timestamp;temperature;humidity
22940;DHT22;11636;52.086;5.090;2022-09-09T00:02:27;16.30;99.90
22940;DHT22;11636;52.086;5.090;2022-09-09T00:05:26;16.20;99.90
22940;DHT22;11636;52.086;5.090;2022-09-09T00:08:27;16.20;99.90
22940;DHT22;11636;52.086;5.090;2022-09-09T00:11:28;16.20;99.90
22940;DHT22;11636;52.086;5.090;2022-09-09T00:17:51;16.10;99.90
22940;DHT22;11636;52.086;5.090;2022-09-09T00:20:50;16.10;99.90
22940;DHT22;11636;52.086;5.090;2022-09-09T00:23:49;16.00;99.90
22940;DHT22;11636;52.086;5.090;2022-09-09T00:26:45;16.00;99.90
22940;DHT22;11636;52.086;5.090;2022-09-09T00:29:57;16.00;99.90
22940;DHT22;11636;52.086;5.090;2022-09-09T00:32:48;15.90;99.90
22940;DHT22;11636;52.086;5.090;2022-09-09T00:35:48;15.90;99.90
22940;DHT22;11636;52.086;5.090;2022-09-09T00:38:48;15.90;99.90
22940;DHT22;11636;52.086;5.090;2022-09-09T00:42:05;15.80;99.90
22940;DHT22;11636;52.086;5.090;2022-09-09T00:45:19;15.80;99.90
22940;DHT22;11636;52.086;5.090;2022-09-09T00:48:12;15.80;99.90
22940;DHT22;11636;52.086;5.090;2022-09-09T00:51:16;15.80;99.90
22940;DHT22;11636;52.086;5.090;2022-09-09T00:57:27;15.70;99.90
22940;DHT22;11636;52.086;5.090;2022-09-09T01:00:27;15.70;99.90
22940;DHT22;11636;52.086;5.090;2022-09-09T01:03:45;15.70;99.90
22940;DHT22;11636;52.086;5.090;2022-09-09T01:06:41;15.60;99.90
22940;DHT22;11636;52.086;5.090;2022-09-09T01:09:56;15.60;99.90
22940;DHT22;11636;52.086;5.090;2022-09-09T01:12:52;15.60;99.90
22940;DHT22;11636;52.086;5.090;2022-09-09T01:15:47;15.50;99.90
22940;DHT22;11636;52.086;5.090;2022-09-09T01:18:51;15.50;99.90
22940;DHT22;11636;52.086;5.090;2022-09-09T01:22:03;15.50;99.90
22940;DHT22;11636;52.086;5.090;2022-09-09T01:28:22;15.40;99.90
22940;DHT22;11636;52.086;5.090;2022-09-09T01:31:32;15.40;99.90
22940;DHT22;11636;52.086;5.090;2022-09-09T01:34:23;15.40;99.90
22940;DHT22;11636;52.086;5.090;2022-09-09T01:37:18;15.40;99.90
22940;DHT22;11636;52.086;5.090;2022-09-09T01:40:05;15.30;99.90
22940;DHT22;11636;52.086;5.090;2022-09-09T01:42:59;15.40;99.90
22940;DHT22;11636;52.086;5.090;2022-09-09T01:45:55;15.30;99.90
22940;DHT22;11636;52.086;5.090;2022-09-09T01:48:51;15.30;99.90
22940;DHT22;11636;52.086;5.090;2022-09-09T01:51:49;15.30;99.90
22940;DHT22;11636;52.086;5.090;2022-09-09T01:54:43;15.30;99.90
22940;DHT22;11636;52.086;5.090;2022-09-09T02:00:43;15.20;99.90
22940;DHT22;11636;52.086;5.090;2022-09-09T02:03:38;15.20;99.90
22940;DHT22;11636;52.086;5.090;2022-09-09T02:06:38;15.20;99.90
22940;DHT22;11636;52.086;5.090;2022-09-09T02:09:33;15.20;99.90
22940;DHT22;11636;52.086;5.090;2022-09-09T02:12:29;15.20;99.90
22940;DHT22;11636;52.086;5.090;2022-09-09T02:18:51;15.20;99.90
22940;DHT22;11636;52.086;5.090;2022-09-09T02:21:46;15.20;99.90
22940;DHT22;11636;52.086;5.090;2022-09-09T02:24:37;15.30;99.90
22940;DHT22;11636;52.086;5.090;2022-09-09T02:27:31;15.30;99.90
22940;DHT22;11636;52.086;5.090;2022-09-09T02:30:19;15.30;99.90
22940;DHT22;11636;52.086;5.090;2022-09-09T02:33:14;15.30;99.90
22940;DHT22;11636;52.086;5.090;2022-09-09T02:36:02;15.30;99.90
22940;DHT22;11636;52.086;5.090;2022-09-09T02:38:57;15.20;99.90
22940;DHT22;11636;52.086;5.090;2022-09-09T02:41:44;15.20;99.90
22940;DHT22;11636;52.086;5.090;2022-09-09T02:44:38;15.20;99.90
22940;DHT22;11636;52.086;5.090;2022-09-09T02:47:28;15.20;99.90
22940;DHT22;11636;52.086;5.090;2022-09-09T02:50:37;15.20;99.90
22940;DHT22;11636;52.086;5.090;2022-09-09T02:53:43;15.20;99.90
22940;DHT22;11636;52.086;5.090;2022-09-09T02:56:42;15.30;99.90
22940;DHT22;11636;52.086;5.090;2022-09-09T02:59:30;15.30;99.90
22940;DHT22;11636;52.086;5.090;2022-09-09T03:02:24;15.30;99.90
22940;DHT22;11636;52.086;5.090;2022-09-09T03:05:18;15.30;99.90
22940;DHT22;11636;52.086;5.090;2022-09-09T03:08:05;15.30;99.90
22940;DHT22;11636;52.086;5.090;2022-09-09T03:10:59;15.20;99.90
22940;DHT22;11636;52.086;5.090;2022-09-09T03:13:49;15.20;99.90
22940;DHT22;11636;52.086;5.090;2022-09-09T03:16:43;15.20;99.90
22940;DHT22;11636;52.086;5.090;2022-09-09T03:19:37;15.20;99.90
22940;DHT22;11636;52.086;5.090;2022-09-09T03:22:25;15.10;99.90
22940;DHT22;11636;52.086;5.090;2022-09-09T03:25:19;15.10;99.90
22940;DHT22;11636;52.086;5.090;2022-09-09T03:28:13;15.00;99.90
22940;DHT22;11636;52.086;5.090;2022-09-09T03:31:07;15.00;99.90
22940;DHT22;11636;52.086;5.090;2022-09-09T03:33:57;14.90;99.90
22940;DHT22;11636;52.086;5.090;2022-09-09T03:36:51;14.90;99.90
22940;DHT22;11636;52.086;5.090;2022-09-09T03:39:38;14.90;99.90
22940;DHT22;11636;52.086;5.090;2022-09-09T03:42:32;14.90;99.90
22940;DHT22;11636;52.086;5.090;2022-09-09T03:45:26;14.90;99.90
22940;DHT22;11636;52.086;5.090;2022-09-09T03:48:14;14.80;99.90
22940;DHT22;11636;52.086;5.090;2022-09-09T03:51:08;14.90;99.90
22940;DHT22;11636;52.086;5.090;2022-09-09T03:54:02;14.80;99.90
22940;DHT22;11636;52.086;5.090;2022-09-09T03:56:58;14.80;99.90
22940;DHT22;11636;52.086;5.090;2022-09-09T03:59:45;14.80;99.90
22940;DHT22;11636;52.086;5.090;2022-09-09T04:02:39;14.70;99.90
22940;DHT22;11636;52.086;5.090;2022-09-09T04:05:26;14.80;99.90
22940;DHT22;11636;52.086;5.090;2022-09-09T04:08:21;14.80;99.90
22940;DHT22;11636;52.086;5.090;2022-09-09T04:11:15;14.70;99.90
22940;DHT22;11636;52.086;5.090;2022-09-09T04:14:09;14.70;99.90
22940;DHT22;11636;52.086;5.090;2022-09-09T04:16:56;14.80;99.90
22940;DHT22;11636;52.086;5.090;2022-09-09T04:19:50;14.80;99.90
22940;DHT22;11636;52.086;5.090;2022-09-09T04:22:37;14.80;99.90
22940;DHT22;11636;52.086;5.090;2022-09-09T04:25:32;14.80;99.90
22940;DHT22;11636;52.086;5.090;2022-09-09T04:28:22;14.80;99.90
22940;DHT22;11636;52.086;5.090;2022-09-09T04:31:18;14.80;99.90
22940;DHT22;11636;52.086;5.090;2022-09-09T04:34:08;14.80;99.90
22940;DHT22;11636;52.086;5.090;2022-09-09T04:37:01;14.80;99.90
22940;DHT22;11636;52.086;5.090;2022-09-09T04:39:48;14.80;99.90
22940;DHT22;11636;52.086;5.090;2022-09-09T04:42:42;14.80;99.90
22940;DHT22;11636;52.086;5.090;2022-09-09T04:45:30;14.70;99.90
22940;DHT22;11636;52.086;5.090;2022-09-09T04:48:24;14.70;99.90
22940;DHT22;11636;52.086;5.090;2022-09-09T04:51:18;14.70;99.90
22940;DHT22;11636;52.086;5.090;2022-09-09T04:54:12;14.70;99.90
22940;DHT22;11636;52.086;5.090;2022-09-09T04:56:59;14.70;99.90
22940;DHT22;11636;52.086;5.090;2022-09-09T04:59:53;14.70;99.90
22940;DHT22;11636;52.086;5.090;2022-09-09T05:02:40;14.70;99.90
22940;DHT22;11636;52.086;5.090;2022-09-09T05:05:35;14.70;99.90
22940;DHT22;11636;52.086;5.090;2022-09-09T05:08:23;14.70;99.90
22940;DHT22;11636;52.086;5.090;2022-09-09T05:11:17;14.70;99.90
22940;DHT22;11636;52.086;5.090;2022-09-09T05:14:05;14.70;99.90
22940;DHT22;11636;52.086;5.090;2022-09-09T05:16:58;14.70;99.90
22940;DHT22;11636;52.086;5.090;2022-09-09T05:19:45;14.70;99.90
22940;DHT22;11636;52.086;5.090;2022-09-09T05:22:39;14.70;99.90
22940;DHT22;11636;52.086;5.090;2022-09-09T05:25:33;14.70;99.90
22940;DHT22;11636;52.086;5.090;2022-09-09T05:28:28;14.70;99.90
22940;DHT22;11636;52.086;5.090;2022-09-09T05:31:22;14.70;99.90
22940;DHT22;11636;52.086;5.090;2022-09-09T05:34:16;14.70;99.90
22940;DHT22;11636;52.086;5.090;2022-09-09T05:37:03;14.80;99.90
22940;DHT22;11636;52.086;5.090;2022-09-09T05:39:57;14.80;99.90
22940;DHT22;11636;52.086;5.090;2022-09-09T05:42:47;14.80;99.90
22940;DHT22;11636;52.086;5.090;2022-09-09T05:45:41;14.80;99.90
22940;DHT22;11636;52.086;5.090;2022-09-09T05:48:37;14.80;99.90
22940;DHT22;11636;52.086;5.090;2022-09-09T05:51:26;14.90;99.90
22940;DHT22;11636;52.086;5.090;2022-09-09T05:54:21;14.90;99.90
22940;DHT22;11636;52.086;5.090;2022-09-09T05:57:15;14.90;99.90
22940;DHT22;11636;52.086;5.090;2022-09-09T06:00:02;15.00;99.90
22940;DHT22;11636;52.086;5.090;2022-09-09T06:02:56;15.00;99.90
22940;DHT22;11636;52.086;5.090;2022-09-09T06:05:44;15.00;99.90
22940;DHT22;11636;52.086;5.090;2022-09-09T06:08:39;15.00;99.90
22940;DHT22;11636;52.086;5.090;2022-09-09T06:11:29;15.00;99.90
22940;DHT22;11636;52.086;5.090;2022-09-09T06:14:25;15.00;99.90
22940;DHT22;11636;52.086;5.090;2022-09-09T06:17:20;15.10;99.90
22940;DHT22;11636;52.086;5.090;2022-09-09T06:20:16;15.10;99.90
22940;DHT22;11636;52.086;5.090;2022-09-09T06:23:03;15.20;99.90
22940;DHT22;11636;52.086;5.090;2022-09-09T06:26:17;15.20;99.90
22940;DHT22;11636;52.086;5.090;2022-09-09T06:29:12;15.40;99.90
22940;DHT22;11636;52.086;5.090;2022-09-09T06:31:59;15.50;99.90
22940;DHT22;11636;52.086;5.090;2022-09-09T06:34:53;15.50;99.90
22940;DHT22;11636;52.086;5.090;2022-09-09T06:37:45;15.50;99.90
22940;DHT22;11636;52.086;5.090;2022-09-09T06:40:39;15.60;99.90
22940;DHT22;11636;52.086;5.090;2022-09-09T06:43:27;15.60;99.90
22940;DHT22;11636;52.086;5.090;2022-09-09T06:46:22;15.60;99.90
22940;DHT22;11636;52.086;5.090;2022-09-09T06:49:12;15.70;99.90
22940;DHT22;11636;52.086;5.090;2022-09-09T06:52:06;15.80;99.90
22940;DHT22;11636;52.086;5.090;2022-09-09T06:55:03;15.90;99.90
22940;DHT22;11636;52.086;5.090;2022-09-09T06:57:50;16.10;99.90
22940;DHT22;11636;52.086;5.090;2022-09-09T07:00:45;16.30;99.90
22940;DHT22;11636;52.086;5.090;2022-09-09T07:03:33;16.30;99.90
22940;DHT22;11636;52.086;5.090;2022-09-09T07:06:46;16.40;99.90
22940;DHT22;11636;52.086;5.090;2022-09-09T07:09:33;16.50;99.90
22940;DHT22;11636;52.086;5.090;2022-09-09T07:12:26;16.60;99.90
22940;DHT22;11636;52.086;5.090;2022-09-09T07:15:13;16.70;99.90
22940;DHT22;11636;52.086;5.090;2022-09-09T07:18:07;16.80;99.90
22940;DHT22;11636;52.086;5.090;2022-09-09T07:20:57;16.80;99.90
22940;DHT22;11636;52.086;5.090;2022-09-09T07:23:50;16.90;99.90
22940;DHT22;11636;52.086;5.090;2022-09-09T07:26:39;17.00;99.90
22940;DHT22;11636;52.086;5.090;2022-09-09T07:29:33;17.00;99.90
22940;DHT22;11636;52.086;5.090;2022-09-09T07:32:27;17.00;99.90
22940;DHT22;11636;52.086;5.090;2022-09-09T07:35:14;16.90;99.90
22940;DHT22;11636;52.086;5.090;2022-09-09T07:38:08;16.90;99.90
22940;DHT22;11636;52.086;5.090;2022-09-09T07:41:04;16.90;99.90
22940;DHT22;11636;52.086;5.090;2022-09-09T07:43:58;17.00;99.90
22940;DHT22;11636;52.086;5.090;2022-09-09T07:46:53;17.00;99.90
22940;DHT22;11636;52.086;5.090;2022-09-09T07:49:40;17.00;99.90
22940;DHT22;11636;52.086;5.090;2022-09-09T07:52:35;16.80;99.90
22940;DHT22;11636;52.086;5.090;2022-09-09T07:55:28;16.80;99.90
22940;DHT22;11636;52.086;5.090;2022-09-09T07:58:22;16.80;99.90
22940;DHT22;11636;52.086;5.090;2022-09-09T08:01:12;16.80;99.90
22940;DHT22;11636;52.086;5.090;2022-09-09T08:04:11;16.80;99.90
22940;DHT22;11636;52.086;5.090;2022-09-09T08:07:02;16.80;99.90
22940;DHT22;11636;52.086;5.090;2022-09-09T08:09:56;16.80;99.90
22940;DHT22;11636;52.086;5.090;2022-09-09T08:12:44;16.90;99.90
22940;DHT22;11636;52.086;5.090;2022-09-09T08:18:57;17.20;99.90
22940;DHT22;11636;52.086;5.090;2022-09-09T08:21:51;17.30;99.90
22940;DHT22;11636;52.086;5.090;2022-09-09T08:24:38;17.30;99.90
22940;DHT22;11636;52.086;5.090;2022-09-09T08:27:40;17.30;99.90
22940;DHT22;11636;52.086;5.090;2022-09-09T08:30:28;17.30;99.90
22940;DHT22;11636;52.086;5.090;2022-09-09T08:33:21;17.30;99.90
22940;DHT22;11636;52.086;5.090;2022-09-09T08:36:11;17.30;99.90
22940;DHT22;11636;52.086;5.090;2022-09-09T08:39:06;17.30;99.90
22940;DHT22;11636;52.086;5.090;2022-09-09T08:48:42;17.20;99.90
22940;DHT22;11636;52.086;5.090;2022-09-09T08:51:34;17.20;99.90
22940;DHT22;11636;52.086;5.090;2022-09-09T08:54:33;17.20;99.90
22940;DHT22;11636;52.086;5.090;2022-09-09T08:57:38;17.20;99.90
22940;DHT22;11636;52.086;5.090;2022-09-09T09:00:33;17.20;99.90
22940;DHT22;11636;52.086;5.090;2022-09-09T09:09:30;17.10;99.90
22940;DHT22;11636;52.086;5.090;2022-09-09T09:12:27;17.10;99.90
22940;DHT22;11636;52.086;5.090;2022-09-09T09:15:27;17.10;99.90
22940;DHT22;11636;52.086;5.090;2022-09-09T09:18:24;17.10;99.90
22940;DHT22;11636;52.086;5.090;2022-09-09T09:21:34;17.20;99.90
22940;DHT22;11636;52.086;5.090;2022-09-09T09:24:45;17.10;99.90
22940;DHT22;11636;52.086;5.090;2022-09-09T09:27:43;17.10;99.90
22940;DHT22;11636;52.086;5.090;2022-09-09T09:30:42;17.00;99.90
22940;DHT22;11636;52.086;5.090;2022-09-09T09:33:48;17.00;99.90
22940;DHT22;11636;52.086;5.090;2022-09-09T09:36:52;17.00;99.90
22940;DHT22;11636;52.086;5.090;2022-09-09T09:39:46;17.00;99.90
22940;DHT22;11636;52.086;5.090;2022-09-09T09:43:00;17.00;99.90
22940;DHT22;11636;52.086;5.090;2022-09-09T09:45:54;17.00;99.90
22940;DHT22;11636;52.086;5.090;2022-09-09T09:49:05;17.10;99.90
22940;DHT22;11636;52.086;5.090;2022-09-09T09:52:00;17.10;99.90
22940;DHT22;11636;52.086;5.090;2022-09-09T09:54:57;17.10;99.90
22940;DHT22;11636;52.086;5.090;2022-09-09T09:57:53;17.20;99.90
22940;DHT22;11636;52.086;5.090;2022-09-09T10:00:52;17.30;99.90
22940;DHT22;11636;52.086;5.090;2022-09-09T10:03:52;17.50;99.90
22940;DHT22;11636;52.086;5.090;2022-09-09T10:06:39;17.60;99.90
22940;DHT22;11636;52.086;5.090;2022-09-09T10:09:33;17.70;99.90
22940;DHT22;11636;52.086;5.090;2022-09-09T10:19:03;17.20;99.90
22940;DHT22;11636;52.086;5.090;2022-09-09T10:40:36;18.00;99.90
22940;DHT22;11636;52.086;5.090;2022-09-09T10:44:11;18.10;99.90
22940;DHT22;11636;52.086;5.090;2022-09-09T10:50:39;18.00;99.90
22940;DHT22;11636;52.086;5.090;2022-09-09T10:57:25;18.20;99.90
22940;DHT22;11636;52.086;5.090;2022-09-09T11:00:24;18.30;99.90
22940;DHT22;11636;52.086;5.090;2022-09-09T11:03:24;18.40;99.90
22940;DHT22;11636;52.086;5.090;2022-09-09T11:06:22;18.40;99.90
22940;DHT22;11636;52.086;5.090;2022-09-09T11:09:19;18.30;99.90
22940;DHT22;11636;52.086;5.090;2022-09-09T11:12:18;18.10;99.90
22940;DHT22;11636;52.086;5.090;2022-09-09T11:15:17;18.00;99.90
22940;DHT22;11636;52.086;5.090;2022-09-09T11:18:19;18.10;99.90
22940;DHT22;11636;52.086;5.090;2022-09-09T11:21:10;18.10;99.90
22940;DHT22;11636;52.086;5.090;2022-09-09T11:24:11;18.10;99.90
22940;DHT22;11636;52.086;5.090;2022-09-09T11:27:09;18.00;99.90
22940;DHT22;11636;52.086;5.090;2022-09-09T11:37:21;17.70;99.90
22940;DHT22;11636;52.086;5.090;2022-09-09T11:40:23;17.50;99.90
22940;DHT22;11636;52.086;5.090;2022-09-09T11:46:37;17.30;99.90
22940;DHT22;11636;52.086;5.090;2022-09-09T11:49:38;17.10;99.90
22940;DHT22;11636;52.086;5.090;2022-09-09T11:52:42;17.00;99.90
22940;DHT22;11636;52.086;5.090;2022-09-09T11:55:37;17.00;99.90
22940;DHT22;11636;52.086;5.090;2022-09-09T11:58:42;17.20;99.90
22940;DHT22;11636;52.086;5.090;2022-09-09T12:01:41;17.30;99.90
22940;DHT22;11636;52.086;5.090;2022-09-09T12:04:48;17.40;99.90
22940;DHT22;11636;52.086;5.090;2022-09-09T12:07:50;17.40;99.90
22940;DHT22;11636;52.086;5.090;2022-09-09T12:10:58;17.60;99.90
22940;DHT22;11636;52.086;5.090;2022-09-09T12:14:00;17.80;99.90
22940;DHT22;11636;52.086;5.090;2022-09-09T12:16:57;18.00;99.90
22940;DHT22;11636;52.086;5.090;2022-09-09T12:23:45;18.30;99.90
22940;DHT22;11636;52.086;5.090;2022-09-09T12:26:56;18.30;99.90
22940;DHT22;11636;52.086;5.090;2022-09-09T12:30:07;18.40;99.90
22940;DHT22;11636;52.086;5.090;2022-09-09T12:33:11;18.40;99.90
22940;DHT22;11636;52.086;5.090;2022-09-09T12:36:00;18.60;99.90
22940;DHT22;11636;52.086;5.090;2022-09-09T12:38:56;18.90;99.90
22940;DHT22;11636;52.086;5.090;2022-09-09T12:41:53;19.40;99.90
22940;DHT22;11636;52.086;5.090;2022-09-09T12:45:02;19.90;99.90
22940;DHT22;11636;52.086;5.090;2022-09-09T12:48:03;20.10;99.90
22940;DHT22;11636;52.086;5.090;2022-09-09T12:50:59;20.00;99.90
22940;DHT22;11636;52.086;5.090;2022-09-09T12:53:54;20.00;99.90
22940;DHT22;11636;52.086;5.090;2022-09-09T12:56:49;19.60;99.90
22940;DHT22;11636;52.086;5.090;2022-09-09T12:59:39;19.30;99.90
22940;DHT22;11636;52.086;5.090;2022-09-09T13:02:33;19.10;99.90
22940;DHT22;11636;52.086;5.090;2022-09-09T13:05:34;18.90;99.90
22940;DHT22;11636;52.086;5.090;2022-09-09T13:08:21;18.70;99.90
22940;DHT22;11636;52.086;5.090;2022-09-09T13:11:42;18.70;99.90
22940;DHT22;11636;52.086;5.090;2022-09-09T13:14:35;18.70;99.90
22940;DHT22;11636;52.086;5.090;2022-09-09T13:17:31;18.80;99.90
22940;DHT22;11636;52.086;5.090;2022-09-09T13:20:25;19.00;99.90
22940;DHT22;11636;52.086;5.090;2022-09-09T13:23:12;19.10;99.90
22940;DHT22;11636;52.086;5.090;2022-09-09T13:26:27;19.20;99.90
22940;DHT22;11636;52.086;5.090;2022-09-09T13:29:19;19.40;99.90
22940;DHT22;11636;52.086;5.090;2022-09-09T13:32:17;19.40;99.90
22940;DHT22;11636;52.086;5.090;2022-09-09T13:35:23;19.40;99.90
22940;DHT22;11636;52.086;5.090;2022-09-09T13:38:16;19.30;99.90
22940;DHT22;11636;52.086;5.090;2022-09-09T13:41:19;19.10;99.90
22940;DHT22;11636;52.086;5.090;2022-09-09T13:44:27;18.80;99.90
22940;DHT22;11636;52.086;5.090;2022-09-09T13:47:31;18.70;99.90
22940;DHT22;11636;52.086;5.090;2022-09-09T13:50:27;18.50;99.90
22940;DHT22;11636;52.086;5.090;2022-09-09T13:53:21;18.40;99.90
22940;DHT22;11636;52.086;5.090;2022-09-09T13:56:15;18.20;99.90
22940;DHT22;11636;52.086;5.090;2022-09-09T13:59:05;18.10;99.90
22940;DHT22;11636;52.086;5.090;2022-09-09T14:01:59;17.90;99.90
22940;DHT22;11636;52.086;5.090;2022-09-09T14:04:55;17.70;99.90
22940;DHT22;11636;52.086;5.090;2022-09-09T14:07:49;17.60;99.90
22940;DHT22;11636;52.086;5.090;2022-09-09T14:10:43;17.40;99.90
22940;DHT22;11636;52.086;5.090;2022-09-09T14:13:37;17.30;99.90
22940;DHT22;11636;52.086;5.090;2022-09-09T14:16:31;17.20;99.90
22940;DHT22;11636;52.086;5.090;2022-09-09T14:19:25;17.10;99.90
22940;DHT22;11636;52.086;5.090;2022-09-09T14:22:19;17.10;99.90
22940;DHT22;11636;52.086;5.090;2022-09-09T14:25:13;17.20;99.90
22940;DHT22;11636;52.086;5.090;2022-09-09T14:28:00;17.40;99.90
22940;DHT22;11636;52.086;5.090;2022-09-09T14:30:58;17.90;99.90
22940;DHT22;11636;52.086;5.090;2022-09-09T14:33:46;18.30;99.90
22940;DHT22;11636;52.086;5.090;2022-09-09T14:36:39;18.60;99.90
22940;DHT22;11636;52.086;5.090;2022-09-09T14:39:27;18.80;99.90
22940;DHT22;11636;52.086;5.090;2022-09-09T14:42:21;18.90;99.90
22940;DHT22;11636;52.086;5.090;2022-09-09T14:45:09;18.70;99.90
22940;DHT22;11636;52.086;5.090;2022-09-09T14:48:03;18.40;99.90
22940;DHT22;11636;52.086;5.090;2022-09-09T14:50:50;18.10;99.90
22940;DHT22;11636;52.086;5.090;2022-09-09T14:53:44;17.90;99.90
22940;DHT22;11636;52.086;5.090;2022-09-09T14:56:33;17.70;99.90
22940;DHT22;11636;52.086;5.090;2022-09-09T14:59:29;17.60;99.90
22940;DHT22;11636;52.086;5.090;2022-09-09T15:02:23;17.50;99.90
22940;DHT22;11636;52.086;5.090;2022-09-09T15:05:10;17.40;99.90
22940;DHT22;11636;52.086;5.090;2022-09-09T15:08:04;17.40;99.90
22940;DHT22;11636;52.086;5.090;2022-09-09T15:10:59;17.30;99.90
22940;DHT22;11636;52.086;5.090;2022-09-09T15:13:53;17.20;99.90
22940;DHT22;11636;52.086;5.090;2022-09-09T15:16:41;17.20;99.90
22940;DHT22;11636;52.086;5.090;2022-09-09T15:19:35;17.20;99.90
22940;DHT22;11636;52.086;5.090;2022-09-09T15:22:23;17.20;99.90
22940;DHT22;11636;52.086;5.090;2022-09-09T15:25:17;17.20;99.90
22940;DHT22;11636;52.086;5.090;2022-09-09T15:28:05;17.30;99.90
22940;DHT22;11636;52.086;5.090;2022-09-09T15:31:09;17.40;99.90
22940;DHT22;11636;52.086;5.090;2022-09-09T15:34:05;17.40;99.90
22940;DHT22;11636;52.086;5.090;2022-09-09T15:36:53;17.50;99.90
22940;DHT22;11636;52.086;5.090;2022-09-09T15:39:48;17.60;99.90
22940;DHT22;11636;52.086;5.090;2022-09-09T15:42:35;17.60;99.90
22940;DHT22;11636;52.086;5.090;2022-09-09T15:45:29;17.70;99.90
22940;DHT22;11636;52.086;5.090;2022-09-09T15:48:18;17.70;99.90
22940;DHT22;11636;52.086;5.090;2022-09-09T15:51:11;17.80;99.90
22940;DHT22;11636;52.086;5.090;2022-09-09T15:54:20;17.80;99.90
22940;DHT22;11636;52.086;5.090;2022-09-09T15:57:15;17.90;99.90
22940;DHT22;11636;52.086;5.090;2022-09-09T16:00:10;17.90;99.90
22940;DHT22;11636;52.086;5.090;2022-09-09T16:02:59;17.80;99.90
22940;DHT22;11636;52.086;5.090;2022-09-09T16:05:52;17.80;99.90
22940;DHT22;11636;52.086;5.090;2022-09-09T16:08:41;17.70;99.90
22940;DHT22;11636;52.086;5.090;2022-09-09T16:11:38;17.60;99.90
22940;DHT22;11636;52.086;5.090;2022-09-09T16:14:32;17.50;99.90
22940;DHT22;11636;52.086;5.090;2022-09-09T16:17:29;17.50;99.90
22940;DHT22;11636;52.086;5.090;2022-09-09T16:20:23;17.40;99.90
22940;DHT22;11636;52.086;5.090;2022-09-09T16:23:10;17.30;99.90
22940;DHT22;11636;52.086;5.090;2022-09-09T16:26:04;17.30;99.90
22940;DHT22;11636;52.086;5.090;2022-09-09T16:28:51;17.30;99.90
22940;DHT22;11636;52.086;5.090;2022-09-09T16:31:48;17.40;99.90
22940;DHT22;11636;52.086;5.090;2022-09-09T16:34:49;17.40;99.90
22940;DHT22;11636;52.086;5.090;2022-09-09T16:37:36;17.30;99.90
22940;DHT22;11636;52.086;5.090;2022-09-09T16:40:29;17.30;99.90
22940;DHT22;11636;52.086;5.090;2022-09-09T16:43:17;17.30;99.90
22940;DHT22;11636;52.086;5.090;2022-09-09T16:46:15;17.30;99.90
22940;DHT22;11636;52.086;5.090;2022-09-09T16:49:11;17.30;99.90
22940;DHT22;11636;52.086;5.090;2022-09-09T16:51:59;17.30;99.90
22940;DHT22;11636;52.086;5.090;2022-09-09T16:54:53;17.30;99.90
22940;DHT22;11636;52.086;5.090;2022-09-09T16:57:47;17.30;99.90
22940;DHT22;11636;52.086;5.090;2022-09-09T17:00:37;17.30;99.90
22940;DHT22;11636;52.086;5.090;2022-09-09T17:03:31;17.30;99.90
22940;DHT22;11636;52.086;5.090;2022-09-09T17:06:19;17.30;99.90
22940;DHT22;11636;52.086;5.090;2022-09-09T17:09:13;17.20;99.90
22940;DHT22;11636;52.086;5.090;2022-09-09T17:12:07;17.20;99.90
22940;DHT22;11636;52.086;5.090;2022-09-09T17:14:55;17.20;99.90
22940;DHT22;11636;52.086;5.090;2022-09-09T17:17:50;17.20;99.90
22940;DHT22;11636;52.086;5.090;2022-09-09T17:20:46;17.20;99.90
22940;DHT22;11636;52.086;5.090;2022-09-09T17:23:35;17.30;99.90
22940;DHT22;11636;52.086;5.090;2022-09-09T17:26:32;17.30;99.90
22940;DHT22;11636;52.086;5.090;2022-09-09T17:29:26;17.30;99.90
22940;DHT22;11636;52.086;5.090;2022-09-09T17:32:13;17.30;99.90
22940;DHT22;11636;52.086;5.090;2022-09-09T17:35:07;17.30;99.90
22940;DHT22;11636;52.086;5.090;2022-09-09T17:37:55;17.30;99.90
22940;DHT22;11636;52.086;5.090;2022-09-09T17:40:49;17.30;99.90
22940;DHT22;11636;52.086;5.090;2022-09-09T17:43:38;17.30;99.90
22940;DHT22;11636;52.086;5.090;2022-09-09T17:46:36;17.30;99.90
22940;DHT22;11636;52.086;5.090;2022-09-09T17:49:24;17.20;99.90
22940;DHT22;11636;52.086;5.090;2022-09-09T17:52:17;17.20;99.90
22940;DHT22;11636;52.086;5.090;2022-09-09T17:55:05;17.20;99.90
22940;DHT22;11636;52.086;5.090;2022-09-09T17:57:58;17.20;99.90
22940;DHT22;11636;52.086;5.090;2022-09-09T18:00:46;17.20;99.90
22940;DHT22;11636;52.086;5.090;2022-09-09T18:03:40;17.20;99.90
22940;DHT22;11636;52.086;5.090;2022-09-09T18:06:38;17.10;99.90
22940;DHT22;11636;52.086;5.090;2022-09-09T18:09:25;17.10;99.90
22940;DHT22;11636;52.086;5.090;2022-09-09T18:12:19;17.00;99.90
22940;DHT22;11636;52.086;5.090;2022-09-09T18:15:13;17.00;99.90
22940;DHT22;11636;52.086;5.090;2022-09-09T18:18:23;16.90;99.90
22940;DHT22;11636;52.086;5.090;2022-09-09T18:21:18;16.80;99.90
22940;DHT22;11636;52.086;5.090;2022-09-09T18:24:14;16.80;99.90
22940;DHT22;11636;52.086;5.090;2022-09-09T18:27:01;16.70;99.90
22940;DHT22;11636;52.086;5.090;2022-09-09T18:29:55;16.70;99.90
22940;DHT22;11636;52.086;5.090;2022-09-09T18:32:48;16.70;99.90
22940;DHT22;11636;52.086;5.090;2022-09-09T18:35:42;16.70;99.90
22940;DHT22;11636;52.086;5.090;2022-09-09T18:38:36;16.70;99.90
22940;DHT22;11636;52.086;5.090;2022-09-09T18:41:33;16.60;99.90
22940;DHT22;11636;52.086;5.090;2022-09-09T18:44:30;16.60;99.90
22940;DHT22;11636;52.086;5.090;2022-09-09T18:47:24;16.60;99.90
22940;DHT22;11636;52.086;5.090;2022-09-09T18:50:11;16.60;99.90
22940;DHT22;11636;52.086;5.090;2022-09-09T18:53:05;16.50;99.90
22940;DHT22;11636;52.086;5.090;2022-09-09T18:56:01;16.50;99.90
22940;DHT22;11636;52.086;5.090;2022-09-09T18:58:55;16.50;99.90
22940;DHT22;11636;52.086;5.090;2022-09-09T19:01:51;16.40;99.90
22940;DHT22;11636;52.086;5.090;2022-09-09T19:04:44;16.40;99.90
22940;DHT22;11636;52.086;5.090;2022-09-09T19:07:31;16.40;99.90
22940;DHT22;11636;52.086;5.090;2022-09-09T19:10:25;16.40;99.90
22940;DHT22;11636;52.086;5.090;2022-09-09T19:13:13;16.40;99.90
22940;DHT22;11636;52.086;5.090;2022-09-09T19:16:09;16.40;99.90
22940;DHT22;11636;52.086;5.090;2022-09-09T19:19:06;16.40;99.90
22940;DHT22;11636;52.086;5.090;2022-09-09T19:22:01;16.50;99.90
22940;DHT22;11636;52.086;5.090;2022-09-09T19:24:55;16.40;99.90
22940;DHT22;11636;52.086;5.090;2022-09-09T19:27:44;16.40;99.90
22940;DHT22;11636;52.086;5.090;2022-09-09T19:30:38;16.40;99.90
22940;DHT22;11636;52.086;5.090;2022-09-09T19:33:27;16.40;99.90
22940;DHT22;11636;52.086;5.090;2022-09-09T19:36:22;16.40;99.90
22940;DHT22;11636;52.086;5.090;2022-09-09T19:39:10;16.40;99.90
22940;DHT22;11636;52.086;5.090;2022-09-09T19:42:03;16.40;99.90
22940;DHT22;11636;52.086;5.090;2022-09-09T19:44:50;16.40;99.90